sensor_id;sensor_type;location;lat;lon;timestamp;temperature;humidity
53314;DHT22;39202;51.468;7.146;2023-06-10T00:00:44;33.60;37.70
53314;DHT22;39202;51.468;7.146;2023-06-10T00:05:46;33.50;37.70
53314;DHT22;39202;51.468;7.146;2023-06-10T00:10:47;33.50;37.60
53314;DHT22;39202;51.468;7.146;2023-06-10T00:15:51;33.50;37.70
53314;DHT22;39202;51.468;7.146;2023-06-10T00:20:53;33.50;37.70
53314;DHT22;39202;51.468;7.146;2023-06-10T00:25:55;33.40;37.60
53314;DHT22;39202;51.468;7.146;2023-06-10T00:30:58;33.50;37.70
53314;DHT22;39202;51.468;7.146;2023-06-10T00:36:00;33.40;37.60
53314;DHT22;39202;51.468;7.146;2023-06-10T00:41:02;33.50;37.70
53314;DHT22;39202;51.468;7.146;2023-06-10T00:46:05;33.40;37.70
53314;DHT22;39202;51.468;7.146;2023-06-10T00:51:07;33.40;37.70
53314;DHT22;39202;51.468;7.146;2023-06-10T00:56:10;33.40;37.70
53314;DHT22;39202;51.468;7.146;2023-06-10T01:01:13;33.40;37.70
53314;DHT22;39202;51.468;7.146;2023-06-10T01:06:24;33.40;37.70
53314;DHT22;39202;51.468;7.146;2023-06-10T01:11:33;33.40;37.80
53314;DHT22;39202;51.468;7.146;2023-06-10T01:16:37;33.40;37.80
53314;DHT22;39202;51.468;7.146;2023-06-10T01:21:42;33.40;37.80
53314;DHT22;39202;51.468;7.146;2023-06-10T01:26:50;33.40;37.80
53314;DHT22;39202;51.468;7.146;2023-06-10T01:31:58;33.30;37.70
53314;DHT22;39202;51.468;7.146;2023-06-10T01:37:05;33.30;37.70
53314;DHT22;39202;51.468;7.146;2023-06-10T01:42:08;33.40;37.80
53314;DHT22;39202;51.468;7.146;2023-06-10T01:47:11;33.30;37.80
53314;DHT22;39202;51.468;7.146;2023-06-10T01:52:14;33.30;37.80
53314;DHT22;39202;51.468;7.146;2023-06-10T01:57:16;33.30;37.80
53314;DHT22;39202;51.468;7.146;2023-06-10T02:02:18;33.30;37.80
53314;DHT22;39202;51.468;7.146;2023-06-10T02:07:23;33.20;37.70
53314;DHT22;39202;51.468;7.146;2023-06-10T02:12:25;33.20;37.70
53314;DHT22;39202;51.468;7.146;2023-06-10T02:17:27;33.30;37.80
53314;DHT22;39202;51.468;7.146;2023-06-10T02:22:30;33.20;37.70
53314;DHT22;39202;51.468;7.146;2023-06-10T02:27:32;33.20;37.80
53314;DHT22;39202;51.468;7.146;2023-06-10T02:32:34;33.20;37.80
53314;DHT22;39202;51.468;7.146;2023-06-10T02:37:37;33.20;37.80
53314;DHT22;39202;51.468;7.146;2023-06-10T02:42:38;33.20;37.90
53314;DHT22;39202;51.468;7.146;2023-06-10T02:47:41;33.20;37.90
53314;DHT22;39202;51.468;7.146;2023-06-10T02:52:44;33.20;37.90
53314;DHT22;39202;51.468;7.146;2023-06-10T02:57:46;33.20;37.90
53314;DHT22;39202;51.468;7.146;2023-06-10T03:02:48;33.20;37.90
53314;DHT22;39202;51.468;7.146;2023-06-10T03:07:51;33.20;37.90
53314;DHT22;39202;51.468;7.146;2023-06-10T03:12:52;33.20;37.90
53314;DHT22;39202;51.468;7.146;2023-06-10T03:17:54;33.10;37.90
53314;DHT22;39202;51.468;7.146;2023-06-10T03:22:57;33.10;37.90
53314;DHT22;39202;51.468;7.146;2023-06-10T03:27:59;33.10;37.90
53314;DHT22;39202;51.468;7.146;2023-06-10T03:33:01;33.10;37.90
53314;DHT22;39202;51.468;7.146;2023-06-10T03:38:05;33.10;37.90
53314;DHT22;39202;51.468;7.146;2023-06-10T03:43:06;33.10;38.00
53314;DHT22;39202;51.468;7.146;2023-06-10T03:48:08;33.00;37.90
53314;DHT22;39202;51.468;7.146;2023-06-10T03:53:13;33.00;37.90
53314;DHT22;39202;51.468;7.146;2023-06-10T03:58:15;33.00;37.90
53314;DHT22;39202;51.468;7.146;2023-06-10T04:03:18;33.00;38.00
53314;DHT22;39202;51.468;7.146;2023-06-10T04:08:23;33.00;38.00
53314;DHT22;39202;51.468;7.146;2023-06-10T04:13:24;33.00;38.00
53314;DHT22;39202;51.468;7.146;2023-06-10T04:18:26;33.00;38.00
53314;DHT22;39202;51.468;7.146;2023-06-10T04:23:30;33.00;38.00
53314;DHT22;39202;51.468;7.146;2023-06-10T04:28:31;33.00;38.00
53314;DHT22;39202;51.468;7.146;2023-06-10T04:33:33;32.90;38.00
53314;DHT22;39202;51.468;7.146;2023-06-10T04:38:36;33.00;38.10
53314;DHT22;39202;51.468;7.146;2023-06-10T04:43:38;33.00;38.10
53314;DHT22;39202;51.468;7.146;2023-06-10T04:48:40;33.00;38.20
53314;DHT22;39202;51.468;7.146;2023-06-10T04:53:44;33.00;38.20
53314;DHT22;39202;51.468;7.146;2023-06-10T04:58:45;33.00;38.20
53314;DHT22;39202;51.468;7.146;2023-06-10T05:03:47;33.00;38.20
53314;DHT22;39202;51.468;7.146;2023-06-10T05:08:50;32.90;38.20
53314;DHT22;39202;51.468;7.146;2023-06-10T05:13:52;33.00;38.30
53314;DHT22;39202;51.468;7.146;2023-06-10T05:18:54;33.00;38.30
53314;DHT22;39202;51.468;7.146;2023-06-10T05:23:57;33.00;38.30
53314;DHT22;39202;51.468;7.146;2023-06-10T05:28:58;33.00;38.40
53314;DHT22;39202;51.468;7.146;2023-06-10T05:34:00;33.00;38.40
53314;DHT22;39202;51.468;7.146;2023-06-10T05:39:04;33.00;38.40
53314;DHT22;39202;51.468;7.146;2023-06-10T05:44:05;33.00;38.40
53314;DHT22;39202;51.468;7.146;2023-06-10T05:49:07;32.50;38.00
53314;DHT22;39202;51.468;7.146;2023-06-10T05:54:10;33.10;38.40
53314;DHT22;39202;51.468;7.146;2023-06-10T05:59:12;33.10;38.40
53314;DHT22;39202;51.468;7.146;2023-06-10T06:04:14;33.10;38.40
53314;DHT22;39202;51.468;7.146;2023-06-10T06:09:17;33.10;38.30
53314;DHT22;39202;51.468;7.146;2023-06-10T06:14:18;33.20;38.40
53314;DHT22;39202;51.468;7.146;2023-06-10T06:19:20;33.20;38.40
53314;DHT22;39202;51.468;7.146;2023-06-10T06:24:23;33.20;38.30
53314;DHT22;39202;51.468;7.146;2023-06-10T06:29:25;33.20;38.30
53314;DHT22;39202;51.468;7.146;2023-06-10T06:34:27;33.20;38.30
53314;DHT22;39202;51.468;7.146;2023-06-10T06:39:30;33.30;38.40
53314;DHT22;39202;51.468;7.146;2023-06-10T06:44:32;33.30;38.40
53314;DHT22;39202;51.468;7.146;2023-06-10T06:49:33;33.30;38.30
53314;DHT22;39202;51.468;7.146;2023-06-10T06:54:37;33.40;38.40
53314;DHT22;39202;51.468;7.146;2023-06-10T06:59:39;33.40;38.30
53314;DHT22;39202;51.468;7.146;2023-06-10T07:04:41;33.40;38.30
53314;DHT22;39202;51.468;7.146;2023-06-10T07:09:44;33.40;38.30
53314;DHT22;39202;51.468;7.146;2023-06-10T07:14:45;33.50;38.40
53314;DHT22;39202;51.468;7.146;2023-06-10T07:19:47;33.50;38.30
53314;DHT22;39202;51.468;7.146;2023-06-10T07:24:50;33.60;38.30
53314;DHT22;39202;51.468;7.146;2023-06-10T07:29:52;33.60;38.30
53314;DHT22;39202;51.468;7.146;2023-06-10T07:34:54;33.60;38.30
53314;DHT22;39202;51.468;7.146;2023-06-10T07:39:57;33.60;38.30
53314;DHT22;39202;51.468;7.146;2023-06-10T07:44:59;33.70;38.30
53314;DHT22;39202;51.468;7.146;2023-06-10T07:50:01;33.80;38.30
53314;DHT22;39202;51.468;7.146;2023-06-10T07:55:05;33.80;38.30
53314;DHT22;39202;51.468;7.146;2023-06-10T08:00:08;33.80;38.30
53314;DHT22;39202;51.468;7.146;2023-06-10T08:05:10;33.90;38.30
53314;DHT22;39202;51.468;7.146;2023-06-10T08:10:13;33.90;38.20
53314;DHT22;39202;51.468;7.146;2023-06-10T08:15:15;34.00;38.20
53314;DHT22;39202;51.468;7.146;2023-06-10T08:20:17;34.00;38.20
53314;DHT22;39202;51.468;7.146;2023-06-10T08:25:20;34.00;38.20
53314;DHT22;39202;51.468;7.146;2023-06-10T08:30:22;34.10;38.10
53314;DHT22;39202;51.468;7.146;2023-06-10T08:35:24;34.10;38.10
53314;DHT22;39202;51.468;7.146;2023-06-10T08:40:27;34.10;38.10
53314;DHT22;39202;51.468;7.146;2023-06-10T08:45:30;34.20;38.10
53314;DHT22;39202;51.468;7.146;2023-06-10T08:50:34;34.20;38.10
53314;DHT22;39202;51.468;7.146;2023-06-10T08:55:42;34.30;38.10
53314;DHT22;39202;51.468;7.146;2023-06-10T09:00:44;34.30;38.00
53314;DHT22;39202;51.468;7.146;2023-06-10T09:05:46;34.30;38.00
53314;DHT22;39202;51.468;7.146;2023-06-10T09:10:49;34.30;38.00
53314;DHT22;39202;51.468;7.146;2023-06-10T09:15:51;34.30;38.00
53314;DHT22;39202;51.468;7.146;2023-06-10T09:20:53;34.40;38.00
53314;DHT22;39202;51.468;7.146;2023-06-10T09:25:59;34.40;38.00
53314;DHT22;39202;51.468;7.146;2023-06-10T09:31:03;34.50;38.00
53314;DHT22;39202;51.468;7.146;2023-06-10T09:36:06;34.50;38.00
53314;DHT22;39202;51.468;7.146;2023-06-10T09:41:09;34.50;37.90
53314;DHT22;39202;51.468;7.146;2023-06-10T09:46:15;34.60;38.00
53314;DHT22;39202;51.468;7.146;2023-06-10T09:51:17;34.60;38.00
53314;DHT22;39202;51.468;7.146;2023-06-10T09:56:21;34.60;37.90
53314;DHT22;39202;51.468;7.146;2023-06-10T10:01:23;34.60;37.90
53314;DHT22;39202;51.468;7.146;2023-06-10T10:06:26;34.70;37.90
53314;DHT22;39202;51.468;7.146;2023-06-10T10:11:30;34.70;37.90
53314;DHT22;39202;51.468;7.146;2023-06-10T10:16:36;34.80;37.80
53314;DHT22;39202;51.468;7.146;2023-06-10T10:21:44;34.80;37.80
53314;DHT22;39202;51.468;7.146;2023-06-10T10:26:54;34.90;37.80
53314;DHT22;39202;51.468;7.146;2023-06-10T10:31:59;34.90;37.80
53314;DHT22;39202;51.468;7.146;2023-06-10T10:37:01;35.00;37.70
53314;DHT22;39202;51.468;7.146;2023-06-10T10:42:07;35.10;37.70
53314;DHT22;39202;51.468;7.146;2023-06-10T10:47:11;35.10;37.60
53314;DHT22;39202;51.468;7.146;2023-06-10T10:52:15;35.20;37.60
53314;DHT22;39202;51.468;7.146;2023-06-10T10:57:18;35.20;37.60
53314;DHT22;39202;51.468;7.146;2023-06-10T11:02:33;35.20;37.50
53314;DHT22;39202;51.468;7.146;2023-06-10T11:07:36;35.20;37.50
53314;DHT22;39202;51.468;7.146;2023-06-10T11:12:52;35.30;37.60
53314;DHT22;39202;51.468;7.146;2023-06-10T11:18:07;35.20;37.40
53314;DHT22;39202;51.468;7.146;2023-06-10T11:23:10;35.30;37.40
53314;DHT22;39202;51.468;7.146;2023-06-10T11:28:19;35.30;37.40
53314;DHT22;39202;51.468;7.146;2023-06-10T11:33:21;35.40;37.40
53314;DHT22;39202;51.468;7.146;2023-06-10T11:38:23;35.40;37.40
53314;DHT22;39202;51.468;7.146;2023-06-10T11:43:26;35.40;37.40
53314;DHT22;39202;51.468;7.146;2023-06-10T11:48:27;35.50;37.40
53314;DHT22;39202;51.468;7.146;2023-06-10T11:53:31;35.60;37.40
53314;DHT22;39202;51.468;7.146;2023-06-10T11:58:34;35.50;37.30
53314;DHT22;39202;51.468;7.146;2023-06-10T12:03:37;35.60;37.30
53314;DHT22;39202;51.468;7.146;2023-06-10T12:08:41;35.60;37.20
53314;DHT22;39202;51.468;7.146;2023-06-10T12:13:48;35.70;37.30
53314;DHT22;39202;51.468;7.146;2023-06-10T12:18:50;35.70;37.20
53314;DHT22;39202;51.468;7.146;2023-06-10T12:24:05;35.70;37.20
53314;DHT22;39202;51.468;7.146;2023-06-10T12:29:22;35.70;37.10
53314;DHT22;39202;51.468;7.146;2023-06-10T12:34:36;35.70;37.10
53314;DHT22;39202;51.468;7.146;2023-06-10T12:39:39;35.70;37.00
53314;DHT22;39202;51.468;7.146;2023-06-10T12:44:43;35.70;37.00
53314;DHT22;39202;51.468;7.146;2023-06-10T12:49:45;35.70;37.00
53314;DHT22;39202;51.468;7.146;2023-06-10T12:54:46;35.80;37.00
53314;DHT22;39202;51.468;7.146;2023-06-10T12:59:50;35.80;37.00
53314;DHT22;39202;51.468;7.146;2023-06-10T13:04:53;35.80;37.00
53314;DHT22;39202;51.468;7.146;2023-06-10T13:09:54;35.80;36.90
53314;DHT22;39202;51.468;7.146;2023-06-10T13:14:57;35.80;36.90
53314;DHT22;39202;51.468;7.146;2023-06-10T13:19:59;35.80;36.90
53314;DHT22;39202;51.468;7.146;2023-06-10T13:25:01;35.80;36.90
53314;DHT22;39202;51.468;7.146;2023-06-10T13:30:06;35.80;36.90
53314;DHT22;39202;51.468;7.146;2023-06-10T13:35:08;35.90;36.90
53314;DHT22;39202;51.468;7.146;2023-06-10T13:40:10;35.80;36.80
53314;DHT22;39202;51.468;7.146;2023-06-10T13:45:14;35.80;36.70
53314;DHT22;39202;51.468;7.146;2023-06-10T13:50:16;35.80;36.70
53314;DHT22;39202;51.468;7.146;2023-06-10T13:55:17;35.80;36.70
53314;DHT22;39202;51.468;7.146;2023-06-10T14:00:22;35.80;36.70
53314;DHT22;39202;51.468;7.146;2023-06-10T14:05:23;35.80;36.70
53314;DHT22;39202;51.468;7.146;2023-06-10T14:10:25;35.80;36.70
53314;DHT22;39202;51.468;7.146;2023-06-10T14:15:28;35.80;36.70
53314;DHT22;39202;51.468;7.146;2023-06-10T14:20:31;35.80;36.70
53314;DHT22;39202;51.468;7.146;2023-06-10T14:25:32;35.80;36.70
53314;DHT22;39202;51.468;7.146;2023-06-10T14:30:36;35.80;36.80
53314;DHT22;39202;51.468;7.146;2023-06-10T14:35:37;35.80;36.80
53314;DHT22;39202;51.468;7.146;2023-06-10T14:40:39;35.80;36.80
53314;DHT22;39202;51.468;7.146;2023-06-10T14:45:43;35.80;36.80
53314;DHT22;39202;51.468;7.146;2023-06-10T14:50:45;35.80;36.80
53314;DHT22;39202;51.468;7.146;2023-06-10T14:55:51;35.80;36.80
53314;DHT22;39202;51.468;7.146;2023-06-10T15:00:54;35.80;36.70
53314;DHT22;39202;51.468;7.146;2023-06-10T15:05:56;35.80;36.80
53314;DHT22;39202;51.468;7.146;2023-06-10T15:10:57;35.80;36.80
53314;DHT22;39202;51.468;7.146;2023-06-10T15:16:03;35.80;36.80
53314;DHT22;39202;51.468;7.146;2023-06-10T15:21:04;35.80;36.80
53314;DHT22;39202;51.468;7.146;2023-06-10T15:26:06;35.80;36.80
53314;DHT22;39202;51.468;7.146;2023-06-10T15:31:09;35.70;36.80
53314;DHT22;39202;51.468;7.146;2023-06-10T15:36:11;35.70;36.80
53314;DHT22;39202;51.468;7.146;2023-06-10T15:41:14;35.70;36.80
53314;DHT22;39202;51.468;7.146;2023-06-10T15:46:17;35.70;36.80
53314;DHT22;39202;51.468;7.146;2023-06-10T15:51:19;35.70;36.80
53314;DHT22;39202;51.468;7.146;2023-06-10T15:56:20;35.70;36.80
53314;DHT22;39202;51.468;7.146;2023-06-10T16:01:24;34.70;36.20
53314;DHT22;39202;51.468;7.146;2023-06-10T16:06:26;35.70;36.90
53314;DHT22;39202;51.468;7.146;2023-06-10T16:11:27;35.70;36.90
53314;DHT22;39202;51.468;7.146;2023-06-10T16:16:31;35.70;36.90
53314;DHT22;39202;51.468;7.146;2023-06-10T16:21:32;35.70;36.80
53314;DHT22;39202;51.468;7.146;2023-06-10T16:26:37;35.70;36.90
53314;DHT22;39202;51.468;7.146;2023-06-10T16:31:40;35.60;36.90
53314;DHT22;39202;51.468;7.146;2023-06-10T16:36:42;35.60;36.90
53314;DHT22;39202;51.468;7.146;2023-06-10T16:41:44;35.60;36.90
53314;DHT22;39202;51.468;7.146;2023-06-10T16:46:47;35.60;36.90
53314;DHT22;39202;51.468;7.146;2023-06-10T16:51:48;35.60;37.00
53314;DHT22;39202;51.468;7.146;2023-06-10T16:56:50;35.60;37.00
53314;DHT22;39202;51.468;7.146;2023-06-10T17:01:53;35.50;37.00
53314;DHT22;39202;51.468;7.146;2023-06-10T17:06:55;35.50;37.00
53314;DHT22;39202;51.468;7.146;2023-06-10T17:11:57;35.50;37.00
53314;DHT22;39202;51.468;7.146;2023-06-10T17:17:00;35.50;37.00
53314;DHT22;39202;51.468;7.146;2023-06-10T17:22:02;35.50;37.10
53314;DHT22;39202;51.468;7.146;2023-06-10T17:27:05;35.50;37.10
53314;DHT22;39202;51.468;7.146;2023-06-10T17:32:08;35.50;37.10
53314;DHT22;39202;51.468;7.146;2023-06-10T17:37:10;35.50;37.10
53314;DHT22;39202;51.468;7.146;2023-06-10T17:42:12;35.50;37.80
53314;DHT22;39202;51.468;7.146;2023-06-10T17:47:15;35.40;37.10
53314;DHT22;39202;51.468;7.146;2023-06-10T17:52:17;35.40;37.10
53314;DHT22;39202;51.468;7.146;2023-06-10T17:57:19;35.40;37.10
53314;DHT22;39202;51.468;7.146;2023-06-10T18:02:22;35.40;37.10
53314;DHT22;39202;51.468;7.146;2023-06-10T18:07:24;35.40;37.20
53314;DHT22;39202;51.468;7.146;2023-06-10T18:12:25;35.40;37.20
53314;DHT22;39202;51.468;7.146;2023-06-10T18:17:28;35.40;37.20
53314;DHT22;39202;51.468;7.146;2023-06-10T18:22:30;35.40;37.20
53314;DHT22;39202;51.468;7.146;2023-06-10T18:27:32;35.40;37.20
53314;DHT22;39202;51.468;7.146;2023-06-10T18:32:35;35.40;37.20
53314;DHT22;39202;51.468;7.146;2023-06-10T18:37:37;35.40;37.20
53314;DHT22;39202;51.468;7.146;2023-06-10T18:42:39;35.40;37.20
53314;DHT22;39202;51.468;7.146;2023-06-10T18:47:42;35.40;37.30
53314;DHT22;39202;51.468;7.146;2023-06-10T18:52:44;35.40;37.30
53314;DHT22;39202;51.468;7.146;2023-06-10T18:57:45;35.30;37.20
53314;DHT22;39202;51.468;7.146;2023-06-10T19:02:48;35.40;37.30
53314;DHT22;39202;51.468;7.146;2023-06-10T19:07:50;35.40;37.30
53314;DHT22;39202;51.468;7.146;2023-06-10T19:12:52;35.30;37.20
53314;DHT22;39202;51.468;7.146;2023-06-10T19:17:55;35.30;37.20
53314;DHT22;39202;51.468;7.146;2023-06-10T19:22:57;35.30;37.30
53314;DHT22;39202;51.468;7.146;2023-06-10T19:27:59;35.30;37.20
53314;DHT22;39202;51.468;7.146;2023-06-10T19:33:02;35.30;37.30
53314;DHT22;39202;51.468;7.146;2023-06-10T19:38:04;35.30;37.30
53314;DHT22;39202;51.468;7.146;2023-06-10T19:43:05;35.30;37.30
53314;DHT22;39202;51.468;7.146;2023-06-10T19:48:08;35.30;37.40
53314;DHT22;39202;51.468;7.146;2023-06-10T19:53:10;35.30;37.40
53314;DHT22;39202;51.468;7.146;2023-06-10T19:58:12;35.20;37.30
53314;DHT22;39202;51.468;7.146;2023-06-10T20:03:15;35.20;37.30
53314;DHT22;39202;51.468;7.146;2023-06-10T20:08:17;35.20;37.30
53314;DHT22;39202;51.468;7.146;2023-06-10T20:13:18;35.20;37.40
53314;DHT22;39202;51.468;7.146;2023-06-10T20:18:22;35.00;37.30
53314;DHT22;39202;51.468;7.146;2023-06-10T20:23:23;35.20;37.50
53314;DHT22;39202;51.468;7.146;2023-06-10T20:28:25;35.20;37.50
53314;DHT22;39202;51.468;7.146;2023-06-10T20:33:30;35.10;37.40
53314;DHT22;39202;51.468;7.146;2023-06-10T20:38:31;35.10;37.40
53314;DHT22;39202;51.468;7.146;2023-06-10T20:43:33;35.20;37.50
53314;DHT22;39202;51.468;7.146;2023-06-10T20:48:36;35.10;37.50
53314;DHT22;39202;51.468;7.146;2023-06-10T20:53:38;35.10;37.50
53314;DHT22;39202;51.468;7.146;2023-06-10T20:58:40;35.10;37.50
53314;DHT22;39202;51.468;7.146;2023-06-10T21:03:43;35.10;37.50
53314;DHT22;39202;51.468;7.146;2023-06-10T21:08:44;35.10;37.50
53314;DHT22;39202;51.468;7.146;2023-06-10T21:13:46;35.00;37.50
53314;DHT22;39202;51.468;7.146;2023-06-10T21:18:49;35.00;37.50
53314;DHT22;39202;51.468;7.146;2023-06-10T21:23:51;35.00;37.50
53314;DHT22;39202;51.468;7.146;2023-06-10T21:28:54;35.00;37.60
53314;DHT22;39202;51.468;7.146;2023-06-10T21:33:57;35.00;37.50
53314;DHT22;39202;51.468;7.146;2023-06-10T21:38:59;35.00;37.60
53314;DHT22;39202;51.468;7.146;2023-06-10T21:44:01;35.00;37.60
53314;DHT22;39202;51.468;7.146;2023-06-10T21:49:04;35.00;37.60
53314;DHT22;39202;51.468;7.146;2023-06-10T21:54:05;35.00;37.60
53314;DHT22;39202;51.468;7.146;2023-06-10T21:59:07;35.00;37.60
53314;DHT22;39202;51.468;7.146;2023-06-10T22:04:11;35.00;37.60
53314;DHT22;39202;51.468;7.146;2023-06-10T22:09:12;35.00;37.60
53314;DHT22;39202;51.468;7.146;2023-06-10T22:14:14;34.90;37.60
53314;DHT22;39202;51.468;7.146;2023-06-10T22:19:17;34.90;37.60
53314;DHT22;39202;51.468;7.146;2023-06-10T22:24:20;34.90;37.60
53314;DHT22;39202;51.468;7.146;2023-06-10T22:29:21;34.90;37.60
53314;DHT22;39202;51.468;7.146;2023-06-10T22:34:25;34.90;37.60
53314;DHT22;39202;51.468;7.146;2023-06-10T22:39:26;34.90;37.60
53314;DHT22;39202;51.468;7.146;2023-06-10T22:44:28;34.90;37.60
53314;DHT22;39202;51.468;7.146;2023-06-10T22:49:31;34.90;37.60
53314;DHT22;39202;51.468;7.146;2023-06-10T22:54:33;34.90;37.70
53314;DHT22;39202;51.468;7.146;2023-06-10T22:59:35;34.80;37.60
53314;DHT22;39202;51.468;7.146;2023-06-10T23:04:38;34.80;37.60
53314;DHT22;39202;51.468;7.146;2023-06-10T23:09:40;34.80;37.60
53314;DHT22;39202;51.468;7.146;2023-06-10T23:14:41;34.80;37.60
53314;DHT22;39202;51.468;7.146;2023-06-10T23:19:44;34.80;37.60
53314;DHT22;39202;51.468;7.146;2023-06-10T23:24:47;34.80;37.60
53314;DHT22;39202;51.468;7.146;2023-06-10T23:29:49;34.80;37.60
53314;DHT22;39202;51.468;7.146;2023-06-10T23:34:52;34.80;37.60
53314;DHT22;39202;51.468;7.146;2023-06-10T23:39:54;34.80;37.70
53314;DHT22;39202;51.468;7.146;2023-06-10T23:44:56;34.80;37.70
53314;DHT22;39202;51.468;7.146;2023-06-10T23:49:59;34.80;37.70
53314;DHT22;39202;51.468;7.146;2023-06-10T23:55:00;34.80;37.80
